Time;durP1;ratioP1;P1;durP2;ratioP2;P2;SDS_P1;SDS_P2;PMS_P1;PMS_P2;Temp;Humidity;BMP_temperature;BMP_pressure;BME280_temperature;BME280_humidity;BME280_pressure;Samples;Min_cycle;Max_cycle;Signal;HPM_P1;HPM_P2
2023/02/14 00:01:47;;;;;;;40.35;16.85;;;1.20;98.00;;;;;;4989388;28;20390;-74
2023/02/14 00:04:14;;;;;;;56.53;18.88;;;1.00;85.50;;;;;;4989500;28;20477;-74
2023/02/14 00:06:41;;;;;;;35.85;14.75;;;;;;;;;;4989894;28;20031;-73
2023/02/14 00:09:08;;;;;;;34.45;12.63;;;;;;;;;;4989997;28;20084;-73
2023/02/14 00:11:34;;;;;;;27.35;10.85;;;1.00;92.00;;;;;;4989635;28;20039;-74
2023/02/14 00:16:44;;;;;;;27.38;10.30;;;0.90;99.90;;;;;;4989602;28;20121;-73
2023/02/14 00:19:14;;;;;;;21.20;10.38;;;-0.60;90.40;;;;;;4989630;28;20117;-75
2023/02/14 00:21:40;;;;;;;24.60;11.38;;;0.70;99.30;;;;;;4989261;28;20042;-74
2023/02/14 00:24:18;;;;;;;19.83;10.98;;;0.40;94.30;;;;;;4989544;28;20022;-72
2023/02/14 00:26:44;;;;;;;26.70;11.35;;;0.70;99.00;;;;;;4989531;28;20066;-73
2023/02/14 00:29:16;;;;;;;37.83;12.30;;;0.60;99.50;;;;;;4989731;28;20433;-73
2023/02/14 00:31:42;;;;;;;26.60;10.93;;;;;;;;;;4989472;28;20035;-73
2023/02/14 00:34:08;;;;;;;24.27;9.77;;;0.60;89.80;;;;;;4989930;28;20015;-74
2023/02/14 00:36:34;;;;;;;25.58;9.30;;;0.40;90.00;;;;;;4989046;28;20088;-74
2023/02/14 00:39:04;;;;;;;29.48;10.93;;;0.50;94.00;;;;;;4989541;28;20395;-74
2023/02/14 00:41:30;;;;;;;19.88;10.35;;;;;;;;;;4989639;28;20030;-73
2023/02/14 00:43:56;;;;;;;19.05;9.70;;;0.50;99.90;;;;;;4989881;28;20026;-73
2023/02/14 00:46:23;;;;;;;28.27;11.48;;;0.50;99.80;;;;;;4988880;28;20038;-74
2023/02/14 00:48:49;;;;;;;22.05;11.18;;;;;;;;;;4989637;28;20746;-74
2023/02/14 00:51:17;;;;;;;27.00;11.30;;;0.60;99.90;;;;;;4988827;28;20030;-73
2023/02/14 00:53:43;;;;;;;;;;;0.60;92.90;;;;;;4989735;28;20522;-73
2023/02/14 00:56:09;;;;;;;20.77;10.77;;;0.50;99.90;;;;;;4989322;28;19985;-74
2023/02/14 00:58:35;;;;;;;21.38;9.85;;;;;;;;;;4989481;28;20121;-74
2023/02/14 01:01:01;;;;;;;26.45;10.80;;;;;;;;;;4989217;28;20396;-73
2023/02/14 01:03:27;;;;;;;16.55;8.90;;;0.40;99.70;;;;;;5020835;28;20022;-74
2023/02/14 01:05:52;;;;;;;22.25;9.75;;;0.50;88.10;;;;;;4989192;28;20030;-73
2023/02/14 01:08:18;;;;;;;24.88;11.40;;;0.40;99.80;;;;;;4989430;28;20041;-73
2023/02/14 01:10:44;;;;;;;24.83;10.80;;;0.60;99.50;;;;;;4989319;28;20042;-73
2023/02/14 01:13:11;;;;;;;21.55;9.68;;;0.20;90.40;;;;;;4992090;28;20421;-73
2023/02/14 01:15:42;;;;;;;17.17;9.93;;;0.30;99.90;;;;;;4992153;28;20022;-73
2023/02/14 01:18:08;;;;;;;19.00;6.50;;;0.40;99.90;;;;;;5007704;28;20039;-73
2023/02/14 01:20:34;;;;;;;20.25;7.78;;;0.20;99.90;;;;;;4992020;28;20038;-73
2023/02/14 01:23:00;;;;;;;61.42;16.90;;;;;;;;;;4992782;28;20058;-73
2023/02/14 01:25:26;;;;;;;31.77;13.40;;;0.20;95.70;;;;;;4992765;28;20113;-73
2023/02/14 01:27:52;;;;;;;24.40;12.43;;;;;;;;;;4992706;28;20121;-73
2023/02/14 01:30:18;;;;;;;32.05;9.52;;;0.50;99.90;;;;;;4992275;28;20034;-73
2023/02/14 01:32:44;;;;;;;28.38;11.90;;;0.40;90.50;;;;;;4992780;28;20040;-74
2023/02/14 01:35:10;;;;;;;44.92;11.88;;;-0.40;90.20;;;;;;4992832;28;20080;-73
2023/02/14 01:37:36;;;;;;;28.33;12.52;;;0.40;98.80;;;;;;4992809;28;20057;-74
2023/02/14 01:40:03;;;;;;;29.13;12.02;;;;;;;;;;4992569;28;20109;-74
2023/02/14 01:42:28;;;;;;;28.48;11.82;;;0.30;99.90;;;;;;4992670;28;20480;-73
2023/02/14 01:44:55;;;;;;;25.25;9.88;;;;;;;;;;4992260;28;20033;-74
2023/02/14 01:47:21;;;;;;;24.98;10.88;;;-0.20;99.90;;;;;;4992965;28;20125;-74
2023/02/14 01:49:51;;;;;;;19.48;8.90;;;0.10;91.00;;;;;;4992317;28;20022;-73
2023/02/14 01:52:27;;;;;;;20.77;11.25;;;0.10;92.00;;;;;;4992104;28;20034;-73
2023/02/14 01:54:57;;;;;;;18.80;8.60;;;0.10;91.10;;;;;;4989944;28;20029;-73
2023/02/14 01:57:27;;;;;;;19.27;6.10;;;0.20;91.10;;;;;;4991913;28;20088;-73
2023/02/14 02:00:55;;;;;;;18.92;7.80;;;0.10;99.90;;;;;;4991711;28;20101;-73
2023/02/14 02:02:43;;;;;;;24.75;10.88;;;0.10;99.90;;;;;;4992027;28;20092;-74
2023/02/14 02:05:09;;;;;;;29.05;11.00;;;0.30;99.90;;;;;;4991853;28;20030;-73
2023/02/14 02:07:35;;;;;;;17.90;10.93;;;0.90;99.90;;;;;;4991678;28;20035;-74
2023/02/14 02:10:04;;;;;;;23.45;10.82;;;0.00;91.30;;;;;;4991941;28;20034;-73
2023/02/14 02:12:31;;;;;;;30.65;11.60;;;0.00;99.90;;;;;;4991662;28;20031;-73
2023/02/14 02:14:58;;;;;;;35.22;12.75;;;-0.10;92.10;;;;;;4991525;28;20027;-73
2023/02/14 02:17:32;;;;;;;17.13;9.80;;;-0.20;99.90;;;;;;4991899;28;20023;-74
2023/02/14 02:20:29;;;;;;;17.65;8.98;;;-0.10;93.10;;;;;;4991685;28;20487;-74
2023/02/14 02:23:32;;;;;;;13.90;7.70;;;0.10;99.90;;;;;;4990750;28;20057;-74
2023/02/14 02:26:19;;;;;;;20.02;8.98;;;0.10;91.40;;;;;;4996675;28;20088;-73
2023/02/14 02:29:03;;;;;;;;;;;0.10;92.00;;;;;;4991847;28;20030;-73
2023/02/14 02:31:46;;;;;;;18.52;9.55;;;-0.10;92.10;;;;;;4991496;28;19912;-74
2023/02/14 02:34:33;;;;;;;19.33;9.50;;;-0.20;92.00;;;;;;4991166;28;20025;-73
2023/02/14 02:37:09;;;;;;;18.25;9.10;;;0.40;99.90;;;;;;4991566;28;20030;-74
2023/02/14 02:39:43;;;;;;;29.58;10.65;;;-0.30;99.90;;;;;;4991621;28;20118;-73
2023/02/14 02:42:34;;;;;;;18.08;9.57;;;-0.30;93.00;;;;;;4990592;28;20026;-74
2023/02/14 02:45:03;;;;;;;22.73;8.43;;;-0.10;99.90;;;;;;4990887;28;20030;-73
2023/02/14 02:47:58;;;;;;;18.13;9.45;;;-0.20;95.00;;;;;;4991154;28;20038;-73
2023/02/14 02:53:45;;;;;;;16.85;7.82;;;-0.10;90.70;;;;;;4990692;28;20038;-74
2023/02/14 02:59:35;;;;;;;25.25;9.00;;;-0.30;99.90;;;;;;5008113;28;20038;-74
2023/02/14 03:02:01;;;;;;;17.08;7.78;;;;;;;;;;5007513;28;20467;-74
2023/02/14 03:09:58;;;;;;;11.38;6.22;;;-0.50;99.90;;;;;;5007641;28;20107;-73
2023/02/14 03:12:27;;;;;;;20.80;9.32;;;0.00;99.90;;;;;;5007616;28;20034;-74
2023/02/14 03:15:19;;;;;;;13.85;5.35;;;-0.20;99.90;;;;;;5007525;28;20112;-74
2023/02/14 03:17:50;;;;;;;16.30;8.10;;;-0.20;92.50;;;;;;5007684;28;20062;-73
2023/02/14 03:20:23;;;;;;;11.52;7.15;;;-0.20;99.90;;;;;;5007445;28;20040;-73
2023/02/14 03:23:01;;;;;;;18.50;8.77;;;-0.30;92.20;;;;;;5006574;28;20522;-73
2023/02/14 03:25:50;;;;;;;17.70;6.57;;;-0.70;99.90;;;;;;5007102;28;20474;-73
2023/02/14 03:28:31;;;;;;;14.30;6.28;;;-0.50;93.20;;;;;;5007265;28;20553;-74
2023/02/14 03:31:32;;;;;;;15.82;8.80;;;-0.50;92.80;;;;;;5007368;28;20037;-73
2023/02/14 03:34:09;;;;;;;17.60;8.20;;;-0.50;99.90;;;;;;5006389;28;20109;-73
2023/02/14 03:36:59;;;;;;;23.80;7.55;;;-0.60;93.60;;;;;;4990099;28;20026;-73
2023/02/14 03:39:25;;;;;;;17.90;8.23;;;;;;;;;;4989951;28;20129;-73
2023/02/14 03:42:05;;;;;;;24.70;7.53;;;-0.70;93.00;;;;;;4989897;28;20101;-73
2023/02/14 03:44:33;;;;;;;8.85;6.28;;;-0.70;92.20;;;;;;4988261;28;20057;-73
2023/02/14 03:47:16;;;;;;;8.77;5.97;;;-0.50;91.70;;;;;;4989906;28;20538;-74
2023/02/14 03:50:08;;;;;;;14.18;6.93;;;-0.40;91.40;;;;;;4990041;28;20018;-73
2023/02/14 03:52:34;;;;;;;10.88;5.53;;;-0.30;90.80;;;;;;4989603;28;20034;-74
2023/02/14 03:55:02;;;;;;;19.67;7.63;;;;;;;;;;4989773;28;20058;-73
2023/02/14 03:57:48;;;;;;;28.40;9.88;;;-0.30;90.40;;;;;;4989609;28;20034;-73
2023/02/14 04:00:14;;;;;;;15.57;9.93;;;-0.30;95.20;;;;;;5021180;28;20034;-73
2023/02/14 04:02:45;;;;;;;28.60;11.50;;;-0.50;93.10;;;;;;4989829;28;20481;-73
2023/02/14 04:05:15;;;;;;;21.73;11.63;;;-0.60;93.50;;;;;;4989514;28;20045;-73
2023/02/14 04:07:51;;;;;;;18.10;8.90;;;-0.80;94.60;;;;;;4989822;28;20046;-73
2023/02/14 04:10:18;;;;;;;29.58;11.73;;;-0.80;99.90;;;;;;4989206;28;20030;-73
2023/02/14 04:12:44;;;;;;;;;;;-0.90;95.50;;;;;;4990519;28;20030;-74
2023/02/14 04:15:10;;;;;;;22.13;11.05;;;;;;;;;;4989147;28;19910;-74
2023/02/14 04:20:21;;;;;;;25.15;9.73;;;;;;;;;;4989399;28;20046;-73
2023/02/14 04:22:47;;;;;;;13.70;6.72;;;;;;;;;;4989303;28;20145;-73
2023/02/14 04:25:13;;;;;;;22.45;9.98;;;;;;;;;;4989354;28;20062;-74
2023/02/14 04:27:39;;;;;;;23.60;10.45;;;-1.00;93.30;;;;;;4989605;28;20030;-73
2023/02/14 04:30:06;;;;;;;17.55;10.23;;;-1.00;93.90;;;;;;4989644;28;20093;-74
2023/02/14 04:32:31;;;;;;;18.33;9.07;;;-0.90;99.10;;;;;;5020937;28;20054;-73
2023/02/14 04:34:57;;;;;;;22.58;8.98;;;;;;;;;;5020702;28;20060;-73
2023/02/14 04:37:23;;;;;;;19.33;9.80;;;;;;;;;;4989695;28;20030;-73
2023/02/14 04:39:49;;;;;;;26.48;10.70;;;;;;;;;;4989545;28;20110;-73
2023/02/14 04:42:15;;;;;;;16.52;8.98;;;;;;;;;;4989646;28;20575;-74
2023/02/14 04:44:41;;;;;;;25.48;9.45;;;;;;;;;;4989667;28;20113;-73
2023/02/14 04:47:07;;;;;;;9.55;7.55;;;-0.90;93.20;;;;;;5022476;28;20035;-74
2023/02/14 04:49:33;;;;;;;13.77;8.07;;;-0.80;95.30;;;;;;4993597;28;20050;-73
2023/02/14 04:52:00;;;;;;;14.50;7.00;;;;;;;;;;4992755;28;20496;-73
2023/02/14 04:54:26;;;;;;;17.50;8.13;;;;;;;;;;4993238;28;20031;-73
2023/02/14 04:56:52;;;;;;;13.77;6.35;;;;;;;;;;4993006;28;20033;-73
2023/02/14 04:59:18;;;;;;;19.73;8.52;;;-1.00;99.90;;;;;;4993181;28;20026;-74
2023/02/14 05:01:44;;;;;;;66.38;22.33;;;;;;;;;;4992939;28;20022;-74
2023/02/14 05:04:10;;;;;;;20.00;11.25;;;;;;;;;;4993207;28;20023;-74
2023/02/14 05:06:36;;;;;;;23.05;11.80;;;;;;;;;;4992396;28;20046;-73
2023/02/14 05:09:01;;;;;;;22.83;10.32;;;-1.00;96.90;;;;;;4992628;28;20030;-73
2023/02/14 05:11:28;;;;;;;27.63;12.60;;;-1.20;99.90;;;;;;4992740;28;20034;-73
2023/02/14 05:13:54;;;;;;;14.60;8.70;;;-0.60;99.90;;;;;;4992705;28;20041;-73
2023/02/14 05:16:20;;;;;;;26.40;9.95;;;;;;;;;;4992654;28;20031;-73
2023/02/14 05:18:46;;;;;;;23.90;11.73;;;-1.20;94.80;;;;;;4992526;28;20778;-73
2023/02/14 05:21:12;;;;;;;18.08;8.35;;;;;;;;;;4992008;28;20278;-73
2023/02/14 05:23:37;;;;;;;33.78;11.75;;;-1.40;95.30;;;;;;4992206;28;20031;-73
2023/02/14 05:26:03;;;;;;;23.23;9.10;;;;;;;;;;4992044;28;20166;-73
2023/02/14 05:28:29;;;;;;;19.40;10.82;;;;;;;;;;4992609;28;20034;-73
2023/02/14 05:30:57;;;;;;;20.02;8.45;;;;;;;;;;4991983;28;20030;-74
2023/02/14 05:33:23;;;;;;;22.10;8.57;;;-1.20;99.90;;;;;;4992437;28;20492;-73
2023/02/14 05:35:49;;;;;;;24.83;12.07;;;-1.50;99.90;;;;;;4992452;28;20042;-74
2023/02/14 05:38:15;;;;;;;23.65;8.73;;;-1.10;99.90;;;;;;4992237;28;20031;-73
2023/02/14 05:40:43;;;;;;;18.00;8.90;;;-1.20;94.00;;;;;;4992077;28;20030;-74
2023/02/14 05:43:09;;;;;;;21.05;14.27;;;-1.00;99.90;;;;;;4991737;28;20034;-73
2023/02/14 05:45:34;;;;;;;24.75;9.95;;;-1.10;99.90;;;;;;4992119;28;20092;-73
2023/02/14 05:48:00;;;;;;;13.60;8.63;;;;;;;;;;5007326;28;20038;-73
2023/02/14 05:50:26;;;;;;;18.75;9.63;;;-1.10;99.90;;;;;;4991552;28;20033;-73
2023/02/14 05:52:52;;;;;;;24.75;9.15;;;;;;;;;;4991824;28;20034;-73
2023/02/14 05:55:18;;;;;;;17.38;9.18;;;-1.30;99.90;;;;;;4991882;28;20134;-73
2023/02/14 05:57:44;;;;;;;23.42;11.05;;;-1.30;99.90;;;;;;4991902;28;20022;-73
2023/02/14 06:00:10;;;;;;;13.43;10.05;;;;;;;;;;5006327;28;20030;-74
2023/02/14 06:02:36;;;;;;;26.73;13.77;;;;;;;;;;4992116;28;20033;-73
2023/02/14 06:05:02;;;;;;;15.65;8.82;;;;;;;;;;4991679;28;20022;-73
2023/02/14 06:07:27;;;;;;;18.30;10.23;;;-1.60;99.90;;;;;;4991501;28;20559;-73
2023/02/14 06:09:53;;;;;;;20.00;8.82;;;;;;;;;;4991759;28;20112;-73
2023/02/14 06:12:19;;;;;;;19.45;9.80;;;-1.60;98.20;;;;;;4991816;28;20116;-73
2023/02/14 06:14:45;;;;;;;15.98;9.70;;;;;;;;;;4991648;28;20761;-74
2023/02/14 06:17:11;;;;;;;15.77;8.07;;;;;;;;;;4991585;28;20724;-73
2023/02/14 06:26:26;;;;;;;31.10;9.70;;;;;;;;;;4912688;28;20065;-73
2023/02/14 06:28:56;;;;;;;15.20;7.65;;;-1.40;93.90;;;;;;4991345;28;20580;-73
2023/02/14 06:31:21;;;;;;;16.02;8.23;;;-1.20;99.90;;;;;;4991241;28;20205;-72
2023/02/14 06:33:47;;;;;;;17.95;10.18;;;-1.80;93.10;;;;;;4991209;28;20025;-72
2023/02/14 06:36:13;;;;;;;15.25;8.93;;;-1.40;93.00;;;;;;4988204;28;20041;-74
2023/02/14 06:38:40;;;;;;;13.73;6.88;;;;;;;;;;4989046;28;20117;-73
2023/02/14 06:41:07;;;;;;;15.93;7.63;;;-1.20;93.60;;;;;;4989669;28;20034;-74
2023/02/14 06:43:33;;;;;;;9.98;7.85;;;;;;;;;;4988383;28;20018;-74
2023/02/14 06:45:59;;;;;;;19.13;9.40;;;;;;;;;;4989484;28;20030;-74
2023/02/14 06:48:25;;;;;;;16.65;7.75;;;;;;;;;;4989307;28;20106;-73
2023/02/14 06:50:51;;;;;;;18.35;9.23;;;;;;;;;;4987915;28;20033;-75
2023/02/14 06:53:18;;;;;;;16.88;9.45;;;-1.40;94.90;;;;;;4989379;28;20038;-72
2023/02/14 06:55:44;;;;;;;17.40;7.57;;;-1.70;99.90;;;;;;4989559;28;20085;-72
2023/02/14 06:58:10;;;;;;;28.92;10.02;;;;;;;;;;4988812;28;20026;-75
2023/02/14 07:00:36;;;;;;;12.63;8.27;;;;;;;;;;4989670;28;20034;-73
2023/02/14 07:03:02;;;;;;;14.35;8.70;;;;;;;;;;4989504;28;20054;-73
2023/02/14 07:05:28;;;;;;;16.83;9.55;;;-1.00;99.90;;;;;;4989399;28;20057;-72
2023/02/14 07:07:53;;;;;;;17.55;6.63;;;-0.90;99.90;;;;;;4988874;28;20491;-72
2023/02/14 07:10:19;;;;;;;13.45;7.90;;;;;;;;;;4988705;28;20030;-72
2023/02/14 07:12:45;;;;;;;17.25;9.02;;;;;;;;;;4989594;28;20092;-72
2023/02/14 07:15:12;;;;;;;33.95;14.52;;;-0.50;93.40;;;;;;4989056;28;20034;-72
2023/02/14 07:17:38;;;;;;;37.87;15.40;;;-0.40;99.90;;;;;;4988961;28;20030;-73
2023/02/14 07:20:05;;;;;;;28.42;12.23;;;-0.90;99.90;;;;;;4989616;28;20050;-73
2023/02/14 07:22:31;;;;;;;35.13;15.27;;;;;;;;;;4988496;28;20092;-72
2023/02/14 07:24:58;;;;;;;30.38;14.05;;;-0.60;96.30;;;;;;4988904;28;20049;-73
2023/02/14 07:27:24;;;;;;;21.17;10.73;;;;;;;;;;4989144;28;20034;-73
2023/02/14 07:29:50;;;;;;;26.15;10.65;;;;;;;;;;4988818;28;20033;-73
2023/02/14 07:32:16;;;;;;;14.18;10.55;;;-0.70;93.00;;;;;;4988669;28;20037;-72
2023/02/14 07:34:42;;;;;;;34.10;14.48;;;;;;;;;;4988813;28;20054;-74
2023/02/14 07:37:08;;;;;;;35.30;14.80;;;;;;;;;;4988036;28;20053;-73
2023/02/14 07:39:34;;;;;;;24.27;14.98;;;-0.60;99.90;;;;;;4990400;28;20042;-73
2023/02/14 07:42:00;;;;;;;25.25;11.32;;;;;;;;;;5009008;28;20034;-73
2023/02/14 07:44:26;;;;;;;42.47;15.35;;;;;;;;;;5027161;28;20116;-73
2023/02/14 07:46:51;;;;;;;35.42;17.40;;;0.10;98.70;;;;;;5013261;28;20042;-74
2023/02/14 07:49:17;;;;;;;78.90;31.48;;;;;;;;;;5008851;28;20029;-74
2023/02/14 07:51:43;;;;;;;128.43;46.63;;;;;;;;;;5003825;28;20060;-73
2023/02/14 07:54:09;;;;;;;189.40;59.10;;;;;;;;;;5007002;28;20176;-72
2023/02/14 07:56:35;;;;;;;115.18;38.60;;;;;;;;;;5006378;28;20026;-78
2023/02/14 07:59:02;;;;;;;78.35;30.17;;;;;;;;;;5006499;28;20071;-75
2023/02/14 08:01:27;;;;;;;65.30;25.38;;;;;;;;;;5006375;28;20449;-72
2023/02/14 08:03:53;;;;;;;40.50;19.63;;;;;;;;;;5005757;28;20041;-74
2023/02/14 08:06:20;;;;;;;47.35;18.88;;;;;;;;;;5005905;28;20112;-74
2023/02/14 08:08:46;;;;;;;48.80;20.55;;;22.90;39.30;;;;;;5006406;28;20030;-73
2023/02/14 08:12:57;;;;;;;38.67;19.27;;;;;;;;;;5003998;28;20034;-74
2023/02/14 08:14:01;;;;;;;36.97;19.73;;;;;;;;;;5005412;28;20046;-74
2023/02/14 08:16:27;;;;;;;51.92;24.33;;;29.80;35.90;;;;;;5006156;28;20028;-75
2023/02/14 08:18:52;;;;;;;55.08;26.50;;;30.90;35.70;;;;;;5006929;28;20118;-74
2023/02/14 08:21:18;;;;;;;56.80;29.08;;;31.80;40.10;;;;;;5003162;28;20486;-72
2023/02/14 08:23:44;;;;;;;54.22;26.73;;;;;;;;;;5010247;28;20057;-75
2023/02/14 08:26:10;;;;;;;55.47;29.98;;;;;;;;;;5009796;28;20083;-82
2023/02/14 08:28:36;;;;;;;61.05;33.13;;;;;;;;;;5010658;28;20041;-76
2023/02/14 08:31:02;;;;;;;54.57;30.53;;;35.20;27.40;;;;;;5008257;28;20065;-76
2023/02/14 08:33:28;;;;;;;40.08;23.30;;;;;;;;;;5010232;28;20407;-74
2023/02/14 08:35:54;;;;;;;60.03;31.63;;;36.30;30.00;;;;;;5009261;28;20022;-76
2023/02/14 08:38:20;;;;;;;42.27;26.80;;;;;;;;;;5024668;28;20710;-75
2023/02/14 08:40:46;;;;;;;37.65;24.13;;;;;;;;;;5007562;28;20032;-75
2023/02/14 08:43:13;;;;;;;39.25;22.60;;;38.50;25.20;;;;;;5008556;28;20109;-76
2023/02/14 08:45:39;;;;;;;27.73;20.15;;;38.80;32.40;;;;;;5009375;28;20034;-74
2023/02/14 08:48:07;;;;;;;31.88;19.15;;;39.00;24.50;;;;;;5010653;28;20036;-74
2023/02/14 08:50:34;;;;;;;24.05;16.13;;;39.40;24.00;;;;;;5007461;28;20034;-76
2023/02/14 08:53:01;;;;;;;26.52;15.50;;;;;;;;;;5008944;28;20032;-76
2023/02/14 08:55:26;;;;;;;26.77;15.48;;;39.90;25.40;;;;;;5009425;28;20062;-74
2023/02/14 08:57:55;;;;;;;25.97;15.80;;;39.60;22.90;;;;;;5025494;28;20596;-75
2023/02/14 09:00:21;;;;;;;34.35;16.60;;;39.90;26.90;;;;;;5007309;28;20062;-75
2023/02/14 09:02:51;;;;;;;24.45;14.45;;;39.70;23.80;;;;;;5008701;28;20607;-75
2023/02/14 09:05:17;;;;;;;24.85;16.13;;;40.20;25.50;;;;;;5009093;28;20038;-76
2023/02/14 09:07:43;;;;;;;30.20;17.80;;;;;;;;;;5009147;28;20040;-75
2023/02/14 09:10:09;;;;;;;27.42;17.20;;;;;;;;;;5007552;28;20407;-76
2023/02/14 09:12:39;;;;;;;27.35;18.30;;;41.40;22.00;;;;;;5008688;28;20037;-76
2023/02/14 09:15:05;;;;;;;29.80;18.90;;;;;;;;;;5009415;28;20029;-75
2023/02/14 09:17:31;;;;;;;29.10;17.73;;;;;;;;;;5009116;28;20032;-75
2023/02/14 09:19:56;;;;;;;24.92;18.40;;;42.50;27.60;;;;;;4996832;28;20038;-74
2023/02/14 09:22:23;;;;;;;34.25;19.25;;;;;;;;;;5009964;28;20030;-75
2023/02/14 09:24:48;;;;;;;;;;;42.50;20.90;;;;;;5009867;28;20495;-76
2023/02/14 09:27:14;;;;;;;29.73;19.70;;;;;;;;;;5008670;28;20012;-76
2023/02/14 09:29:40;;;;;;;33.88;18.88;;;42.50;24.10;;;;;;5004260;28;20032;-76
2023/02/14 09:32:06;;;;;;;28.85;18.75;;;;;;;;;;5004379;28;20124;-75
2023/02/14 09:34:33;;;;;;;30.48;18.73;;;42.80;21.10;;;;;;5006799;28;20030;-76
2023/02/14 09:36:59;;;;;;;28.38;18.60;;;;;;;;;;5008234;28;20045;-75
2023/02/14 09:39:25;;;;;;;30.88;18.75;;;;;;;;;;5008142;28;20026;-76
2023/02/14 09:42:05;;;;;;;27.27;18.60;;;43.90;21.10;;;;;;5006436;28;20030;-75
2023/02/14 09:44:39;;;;;;;27.45;18.52;;;43.70;20.80;;;;;;5009286;28;20022;-74
2023/02/14 09:47:17;;;;;;;28.33;18.17;;;44.20;20.70;;;;;;5009247;28;20061;-76
2023/02/14 09:49:45;;;;;;;29.52;20.08;;;;;;;;;;5003492;28;20064;-76
2023/02/14 09:52:14;;;;;;;31.48;18.15;;;44.00;20.70;;;;;;5007972;28;20520;-75
2023/02/14 09:54:44;;;;;;;27.73;18.50;;;43.50;20.50;;;;;;5008991;28;20037;-77
2023/02/14 09:57:26;;;;;;;27.73;19.58;;;43.30;20.60;;;;;;5007264;28;20030;-76
2023/02/14 10:00:10;;;;;;;28.55;19.02;;;43.60;20.70;;;;;;5005341;28;20049;-77
2023/02/14 10:03:01;;;;;;;29.70;18.48;;;43.90;20.70;;;;;;5008691;28;20388;-77
2023/02/14 10:05:35;;;;;;;28.25;18.83;;;44.10;20.60;;;;;;5007996;28;20037;-75
2023/02/14 10:08:01;;;;;;;29.05;19.63;;;;;;;;;;5009504;28;20502;-76
2023/02/14 10:10:33;;;;;;;;;;;44.80;20.20;;;;;;5004783;28;20037;-75
2023/02/14 10:13:37;;;;;;;23.70;15.63;;;44.90;20.90;;;;;;5008247;28;19906;-76
2023/02/14 10:16:35;;;;;;;;;;;44.90;20.60;;;;;;5024520;28;20446;-77
2023/02/14 10:19:18;;;;;;;19.08;13.82;;;45.30;20.70;;;;;;4986091;28;20133;-75
2023/02/14 10:22:08;;;;;;;20.90;13.45;;;45.90;28.10;;;;;;4982496;28;20500;-75
2023/02/14 10:24:53;;;;;;;27.98;12.35;;;45.30;27.70;;;;;;4985648;28;20034;-74
2023/02/14 10:27:41;;;;;;;18.02;12.63;;;45.40;20.40;;;;;;4983382;28;20780;-75
2023/02/14 10:30:18;;;;;;;19.55;11.77;;;45.60;21.40;;;;;;4980242;28;20057;-76
2023/02/14 10:32:49;;;;;;;15.45;10.05;;;45.90;27.50;;;;;;4978110;28;20492;-75
2023/02/14 10:35:38;;;;;;;17.15;11.60;;;45.60;20.00;;;;;;4985941;28;20050;-75
2023/02/14 10:38:41;;;;;;;17.25;11.85;;;45.90;27.50;;;;;;4986425;28;20113;-76
2023/02/14 10:41:27;;;;;;;23.45;12.48;;;44.90;19.70;;;;;;4979905;28;20041;-75
2023/02/14 10:43:53;;;;;;;23.40;12.57;;;;;;;;;;4985799;28;20030;-76
2023/02/14 10:46:27;;;;;;;17.13;12.45;;;43.10;19.70;;;;;;4982427;28;20562;-76
2023/02/14 10:49:01;;;;;;;18.10;11.88;;;43.00;19.80;;;;;;4985806;28;20042;-76
2023/02/14 10:51:29;;;;;;;19.65;11.60;;;;;;;;;;4980926;28;20597;-76
2023/02/14 10:54:16;;;;;;;19.30;12.02;;;41.70;19.60;;;;;;4989107;28;20084;-76
2023/02/14 10:57:03;;;;;;;17.30;12.68;;;40.70;19.70;;;;;;5004337;28;20052;-76
2023/02/14 10:59:52;;;;;;;21.50;12.65;;;40.60;19.90;;;;;;5005690;28;20044;-76
2023/02/14 11:02:23;;;;;;;19.95;12.10;;;41.30;27.90;;;;;;5005433;28;20021;-74
2023/02/14 11:04:49;;;;;;;22.33;11.45;;;;;;;;;;5008499;28;20101;-75
2023/02/14 11:07:17;;;;;;;16.33;11.50;;;42.00;19.70;;;;;;5006687;28;20499;-76
2023/02/14 11:09:44;;;;;;;17.10;12.15;;;42.10;19.70;;;;;;5004073;28;20030;-76
2023/02/14 11:12:10;;;;;;;18.17;12.02;;;41.60;19.50;;;;;;5007025;28;20033;-75
2023/02/14 11:14:38;;;;;;;17.08;11.63;;;41.40;23.90;;;;;;5008369;28;20033;-76
2023/02/14 11:17:26;;;;;;;22.13;13.18;;;40.30;19.60;;;;;;5006548;28;20109;-76
2023/02/14 11:19:57;;;;;;;19.08;12.25;;;40.40;19.90;;;;;;5004245;28;20049;-75
2023/02/14 11:22:32;;;;;;;19.73;12.50;;;40.80;20.00;;;;;;5006615;28;20144;-75
2023/02/14 11:25:19;;;;;;;19.92;12.57;;;40.10;28.30;;;;;;5007664;28;20084;-76
2023/02/14 11:27:48;;;;;;;22.20;12.60;;;38.80;20.00;;;;;;5005332;28;20128;-75
2023/02/14 11:30:32;;;;;;;25.25;12.57;;;38.40;20.20;;;;;;5003983;28;20022;-74
2023/02/14 11:32:58;;;;;;;26.35;13.48;;;38.00;29.10;;;;;;5006635;28;20038;-75
2023/02/14 11:35:32;;;;;;;19.93;12.80;;;36.70;20.20;;;;;;5007800;28;20026;-75
2023/02/14 11:37:59;;;;;;;26.98;13.82;;;35.50;23.20;;;;;;5006542;28;20642;-75
2023/02/14 11:40:24;;;;;;;21.73;11.85;;;35.50;30.50;;;;;;5002492;28;20116;-75
2023/02/14 11:42:50;;;;;;;24.63;13.97;;;;;;;;;;5006899;28;20113;-74
2023/02/14 11:45:32;;;;;;;29.13;13.43;;;34.50;21.00;;;;;;5007863;28;20026;-75
2023/02/14 11:48:26;;;;;;;24.88;12.98;;;33.90;31.80;;;;;;5006697;28;20124;-74
2023/02/14 11:51:08;;;;;;;25.50;12.70;;;33.30;21.70;;;;;;5003587;28;20087;-75
2023/02/14 11:53:44;;;;;;;18.98;13.00;;;32.70;33.20;;;;;;5006078;28;20035;-75
2023/02/14 11:56:10;;;;;;;21.40;12.38;;;;;;;;;;5006892;28;20399;-75
2023/02/14 11:58:36;;;;;;;25.90;13.48;;;;;;;;;;5006735;28;20030;-75
2023/02/14 12:01:02;;;;;;;30.65;16.13;;;28.90;23.30;;;;;;5003342;28;20084;-74
2023/02/14 12:03:44;;;;;;;22.73;12.90;;;27.80;23.90;;;;;;5006657;28;20022;-74
2023/02/14 12:06:11;;;;;;;24.85;13.38;;;26.90;24.60;;;;;;5006416;28;20121;-74
2023/02/14 12:08:40;;;;;;;24.73;12.73;;;;;;;;;;5006274;28;20110;-75
2023/02/14 12:11:21;;;;;;;30.80;13.85;;;25.40;27.20;;;;;;5002803;28;20026;-74
2023/02/14 12:13:54;;;;;;;24.17;11.98;;;24.70;27.70;;;;;;5006516;28;20037;-74
2023/02/14 12:16:47;;;;;;;20.10;12.27;;;23.80;27.10;;;;;;5006198;28;20034;-74
2023/02/14 12:19:19;;;;;;;27.45;12.10;;;23.50;27.60;;;;;;5006694;28;20042;-75
2023/02/14 12:21:56;;;;;;;22.75;11.75;;;23.00;27.90;;;;;;5003399;28;20033;-78
2023/02/14 12:24:31;;;;;;;26.88;11.60;;;22.60;42.80;;;;;;5006391;28;20030;-77
2023/02/14 12:27:11;;;;;;;25.60;12.15;;;22.00;41.00;;;;;;5005880;28;20054;-75
2023/02/14 12:29:42;;;;;;;25.85;12.43;;;21.80;43.50;;;;;;5005365;28;20026;-75
2023/02/14 12:32:24;;;;;;;19.58;11.77;;;21.60;29.50;;;;;;5004510;28;20026;-76
2023/02/14 12:34:52;;;;;;;26.73;12.98;;;21.40;29.80;;;;;;5003035;28;20080;-81
2023/02/14 12:37:26;;;;;;;25.50;13.18;;;21.20;30.20;;;;;;5004602;28;20503;-73
2023/02/14 12:39:53;;;;;;;27.80;13.20;;;;;;;;;;5002966;28;20076;-76
2023/02/14 12:42:31;;;;;;;27.23;12.18;;;21.10;38.60;;;;;;5006988;28;20073;-86
2023/02/14 12:45:21;;;;;;;22.88;12.07;;;21.00;30.70;;;;;;5009133;28;20100;-90
2023/02/14 12:48:31;;;;;;;22.02;11.57;;;21.00;30.80;;;;;;5004805;28;20046;-82
2023/02/14 12:50:57;;;;;;;24.73;11.82;;;;;;;;;;5001764;28;20060;-82
2023/02/14 12:53:28;;;;;;;27.98;15.20;;;20.90;31.50;;;;;;5003193;28;20038;-81
2023/02/14 12:56:05;;;;;;;21.63;11.55;;;20.70;36.40;;;;;;5003925;28;20030;-86
2023/02/14 12:58:31;;;;;;;27.25;12.15;;;;;;;;;;5003072;28;20038;-82
2023/02/14 13:01:32;;;;;;;27.42;13.75;;;20.60;42.20;;;;;;4998962;28;20469;-74
2023/02/14 13:04:30;;;;;;;21.35;11.60;;;20.50;47.90;;;;;;5003696;28;20026;-89
2023/02/14 13:07:00;;;;;;;26.05;11.32;;;20.60;37.30;;;;;;5003121;28;20042;-73
2023/02/14 13:09:39;;;;;;;21.92;11.35;;;20.00;41.10;;;;;;5003968;28;20026;-73
2023/02/14 13:12:05;;;;;;;25.05;12.75;;;;;;;;;;5005044;28;20077;-74
2023/02/14 13:14:55;;;;;;;21.98;12.23;;;20.20;39.50;;;;;;5006764;28;20600;-76
2023/02/14 13:17:28;;;;;;;22.90;10.57;;;20.10;33.50;;;;;;5002339;28;20026;-74
2023/02/14 13:20:11;;;;;;;22.63;11.07;;;20.10;33.70;;;;;;5003332;28;20025;-74
2023/02/14 13:22:37;;;;;;;19.63;10.93;;;;;;;;;;5005266;28;20021;-73
2023/02/14 13:25:12;;;;;;;25.63;12.85;;;20.10;33.70;;;;;;5007350;28;20049;-75
2023/02/14 13:27:39;;;;;;;19.35;10.02;;;20.20;33.80;;;;;;5004771;28;20029;-73
2023/02/14 13:30:21;;;;;;;22.15;12.20;;;20.20;33.70;;;;;;5005569;28;20030;-74
2023/02/14 13:32:49;;;;;;;22.80;11.38;;;20.20;33.90;;;;;;5009501;28;20045;-74
2023/02/14 13:35:18;;;;;;;19.83;11.02;;;20.10;34.00;;;;;;5009639;28;20053;-71
2023/02/14 13:37:51;;;;;;;25.65;11.82;;;19.10;33.60;;;;;;5039643;28;20037;-72
2023/02/14 13:40:21;;;;;;;23.80;11.38;;;19.90;34.30;;;;;;5006031;28;20033;-72
2023/02/14 13:42:47;;;;;;;19.52;11.75;;;;;;;;;;5009351;28;20033;-75
2023/02/14 13:45:33;;;;;;;22.10;11.43;;;19.70;34.80;;;;;;5008533;28;20061;-76
2023/02/14 13:48:23;;;;;;;20.45;9.77;;;19.70;34.80;;;;;;5008874;28;20088;-74
2023/02/14 13:50:52;;;;;;;17.38;10.02;;;19.70;34.80;;;;;;5005075;28;20514;-73